sensor_id;sensor_type;location;lat;lon;timestamp;P1;durP1;ratioP1;P2;durP2;ratioP2
4355;SDS011;2191;51.482;7.408;2022-08-01T00:00:17;21.13;;;18.43;;
4355;SDS011;2191;51.482;7.408;2022-08-01T00:02:47;18.50;;;16.40;;
4355;SDS011;2191;51.482;7.408;2022-08-01T00:05:15;23.50;;;20.63;;
4355;SDS011;2191;51.482;7.408;2022-08-01T00:07:44;20.23;;;18.00;;
4355;SDS011;2191;51.482;7.408;2022-08-01T00:10:13;27.20;;;18.73;;
4355;SDS011;2191;51.482;7.408;2022-08-01T00:12:42;23.10;;;17.27;;
4355;SDS011;2191;51.482;7.408;2022-08-01T00:15:13;27.77;;;20.27;;
4355;SDS011;2191;51.482;7.408;2022-08-01T00:17:44;21.17;;;18.00;;
4355;SDS011;2191;51.482;7.408;2022-08-01T00:20:15;19.50;;;16.10;;
4355;SDS011;2191;51.482;7.408;2022-08-01T00:22:44;20.17;;;17.53;;
4355;SDS011;2191;51.482;7.408;2022-08-01T00:25:12;18.13;;;16.33;;
4355;SDS011;2191;51.482;7.408;2022-08-01T00:27:40;19.43;;;17.27;;
4355;SDS011;2191;51.482;7.408;2022-08-01T00:30:12;20.40;;;17.40;;
4355;SDS011;2191;51.482;7.408;2022-08-01T00:32:43;17.23;;;15.43;;
4355;SDS011;2191;51.482;7.408;2022-08-01T00:35:11;17.20;;;15.60;;
4355;SDS011;2191;51.482;7.408;2022-08-01T00:37:39;17.17;;;12.90;;
4355;SDS011;2191;51.482;7.408;2022-08-01T00:40:09;17.23;;;15.40;;
4355;SDS011;2191;51.482;7.408;2022-08-01T00:42:42;15.70;;;13.90;;
4355;SDS011;2191;51.482;7.408;2022-08-01T00:45:10;14.40;;;13.10;;
4355;SDS011;2191;51.482;7.408;2022-08-01T00:47:38;17.27;;;15.57;;
4355;SDS011;2191;51.482;7.408;2022-08-01T00:50:09;19.47;;;15.40;;
4355;SDS011;2191;51.482;7.408;2022-08-01T00:52:51;21.37;;;17.63;;
4355;SDS011;2191;51.482;7.408;2022-08-01T00:55:20;21.63;;;19.43;;
4355;SDS011;2191;51.482;7.408;2022-08-01T00:57:48;22.50;;;20.20;;
4355;SDS011;2191;51.482;7.408;2022-08-01T01:00:31;26.93;;;24.03;;
4355;SDS011;2191;51.482;7.408;2022-08-01T01:03:19;28.60;;;25.00;;
4355;SDS011;2191;51.482;7.408;2022-08-01T01:06:09;25.63;;;21.90;;
4355;SDS011;2191;51.482;7.408;2022-08-01T01:08:55;26.30;;;23.60;;
4355;SDS011;2191;51.482;7.408;2022-08-01T01:11:47;27.73;;;24.27;;
4355;SDS011;2191;51.482;7.408;2022-08-01T01:14:27;26.67;;;23.87;;
4355;SDS011;2191;51.482;7.408;2022-08-01T01:17:03;32.60;;;26.77;;
4355;SDS011;2191;51.482;7.408;2022-08-01T01:19:39;28.70;;;25.60;;
4355;SDS011;2191;51.482;7.408;2022-08-01T01:22:24;32.27;;;24.63;;
4355;SDS011;2191;51.482;7.408;2022-08-01T01:25:10;29.87;;;26.67;;
4355;SDS011;2191;51.482;7.408;2022-08-01T01:27:52;30.00;;;26.80;;
4355;SDS011;2191;51.482;7.408;2022-08-01T01:30:31;35.20;;;30.67;;
4355;SDS011;2191;51.482;7.408;2022-08-01T01:33:01;35.03;;;31.33;;
4355;SDS011;2191;51.482;7.408;2022-08-01T01:35:36;42.60;;;33.93;;
4355;SDS011;2191;51.482;7.408;2022-08-01T01:38:17;35.70;;;30.03;;
4355;SDS011;2191;51.482;7.408;2022-08-01T01:40:47;37.03;;;32.70;;
4355;SDS011;2191;51.482;7.408;2022-08-01T01:43:19;35.77;;;28.70;;
4355;SDS011;2191;51.482;7.408;2022-08-01T01:46:02;39.93;;;33.83;;
4355;SDS011;2191;51.482;7.408;2022-08-01T01:48:39;34.73;;;30.87;;
4355;SDS011;2191;51.482;7.408;2022-08-01T01:51:10;40.03;;;30.90;;
4355;SDS011;2191;51.482;7.408;2022-08-01T01:53:40;35.27;;;29.27;;
4355;SDS011;2191;51.482;7.408;2022-08-01T01:56:09;37.20;;;32.47;;
4355;SDS011;2191;51.482;7.408;2022-08-01T01:58:40;33.60;;;29.70;;
4355;SDS011;2191;51.482;7.408;2022-08-01T02:01:14;32.90;;;29.40;;
4355;SDS011;2191;51.482;7.408;2022-08-01T02:04:02;28.23;;;25.23;;
4355;SDS011;2191;51.482;7.408;2022-08-01T02:06:32;29.77;;;25.50;;
4355;SDS011;2191;51.482;7.408;2022-08-01T02:09:00;30.47;;;25.17;;
4355;SDS011;2191;51.482;7.408;2022-08-01T02:11:29;31.50;;;26.93;;
4355;SDS011;2191;51.482;7.408;2022-08-01T02:14:25;33.50;;;26.50;;
4355;SDS011;2191;51.482;7.408;2022-08-01T02:16:56;30.47;;;27.00;;
4355;SDS011;2191;51.482;7.408;2022-08-01T02:19:26;31.20;;;25.93;;
4355;SDS011;2191;51.482;7.408;2022-08-01T02:22:00;29.53;;;25.63;;
4355;SDS011;2191;51.482;7.408;2022-08-01T02:24:33;35.97;;;29.23;;
4355;SDS011;2191;51.482;7.408;2022-08-01T02:27:09;31.10;;;25.57;;
4355;SDS011;2191;51.482;7.408;2022-08-01T02:29:41;29.87;;;26.30;;
4355;SDS011;2191;51.482;7.408;2022-08-01T02:32:14;30.50;;;26.10;;
4355;SDS011;2191;51.482;7.408;2022-08-01T02:34:49;30.50;;;26.30;;
4355;SDS011;2191;51.482;7.408;2022-08-01T02:37:20;31.20;;;27.90;;
4355;SDS011;2191;51.482;7.408;2022-08-01T02:39:51;27.87;;;24.87;;
4355;SDS011;2191;51.482;7.408;2022-08-01T02:42:22;30.57;;;27.27;;
4355;SDS011;2191;51.482;7.408;2022-08-01T02:44:55;33.93;;;26.77;;
4355;SDS011;2191;51.482;7.408;2022-08-01T02:47:25;33.13;;;24.83;;
4355;SDS011;2191;51.482;7.408;2022-08-01T02:49:56;36.13;;;28.93;;
4355;SDS011;2191;51.482;7.408;2022-08-01T02:52:26;30.70;;;25.83;;
4355;SDS011;2191;51.482;7.408;2022-08-01T02:54:57;31.10;;;27.67;;
4355;SDS011;2191;51.482;7.408;2022-08-01T02:57:29;38.17;;;28.83;;
4355;SDS011;2191;51.482;7.408;2022-08-01T03:00:18;35.43;;;26.07;;
4355;SDS011;2191;51.482;7.408;2022-08-01T03:02:51;33.20;;;25.90;;
4355;SDS011;2191;51.482;7.408;2022-08-01T03:05:21;29.90;;;24.33;;
4355;SDS011;2191;51.482;7.408;2022-08-01T03:07:57;31.90;;;24.27;;
4355;SDS011;2191;51.482;7.408;2022-08-01T03:10:37;36.30;;;27.10;;
4355;SDS011;2191;51.482;7.408;2022-08-01T03:13:07;34.03;;;26.80;;
4355;SDS011;2191;51.482;7.408;2022-08-01T03:15:41;31.10;;;24.73;;
4355;SDS011;2191;51.482;7.408;2022-08-01T03:18:14;32.23;;;27.30;;
4355;SDS011;2191;51.482;7.408;2022-08-01T03:20:43;31.00;;;27.50;;
4355;SDS011;2191;51.482;7.408;2022-08-01T03:23:12;34.27;;;26.80;;
4355;SDS011;2191;51.482;7.408;2022-08-01T03:25:43;29.53;;;24.70;;
4355;SDS011;2191;51.482;7.408;2022-08-01T03:28:13;34.23;;;25.80;;
4355;SDS011;2191;51.482;7.408;2022-08-01T03:30:43;25.00;;;22.27;;
4355;SDS011;2191;51.482;7.408;2022-08-01T03:33:17;25.50;;;21.53;;
4355;SDS011;2191;51.482;7.408;2022-08-01T03:35:55;25.00;;;22.30;;
4355;SDS011;2191;51.482;7.408;2022-08-01T03:38:26;19.80;;;17.77;;
4355;SDS011;2191;51.482;7.408;2022-08-01T03:40:58;23.63;;;20.60;;
4355;SDS011;2191;51.482;7.408;2022-08-01T03:43:36;20.63;;;17.83;;
4355;SDS011;2191;51.482;7.408;2022-08-01T03:46:11;20.90;;;18.60;;
4355;SDS011;2191;51.482;7.408;2022-08-01T03:48:47;20.83;;;16.83;;
4355;SDS011;2191;51.482;7.408;2022-08-01T03:51:16;21.27;;;15.30;;
4355;SDS011;2191;51.482;7.408;2022-08-01T03:54:02;17.10;;;15.30;;
4355;SDS011;2191;51.482;7.408;2022-08-01T03:56:37;19.50;;;15.67;;
4355;SDS011;2191;51.482;7.408;2022-08-01T03:59:07;22.90;;;18.97;;
4355;SDS011;2191;51.482;7.408;2022-08-01T04:01:36;26.67;;;18.70;;
4355;SDS011;2191;51.482;7.408;2022-08-01T04:04:06;21.03;;;16.77;;
4355;SDS011;2191;51.482;7.408;2022-08-01T04:06:36;21.67;;;18.77;;
4355;SDS011;2191;51.482;7.408;2022-08-01T04:09:06;22.90;;;19.33;;
4355;SDS011;2191;51.482;7.408;2022-08-01T04:11:39;26.80;;;19.30;;
4355;SDS011;2191;51.482;7.408;2022-08-01T04:14:07;24.87;;;18.80;;
4355;SDS011;2191;51.482;7.408;2022-08-01T04:16:35;25.67;;;19.10;;
4355;SDS011;2191;51.482;7.408;2022-08-01T04:19:04;29.20;;;21.23;;
4355;SDS011;2191;51.482;7.408;2022-08-01T04:21:35;21.83;;;19.50;;
4355;SDS011;2191;51.482;7.408;2022-08-01T04:24:06;27.20;;;21.20;;
4355;SDS011;2191;51.482;7.408;2022-08-01T04:26:41;28.23;;;24.07;;
4355;SDS011;2191;51.482;7.408;2022-08-01T04:29:12;31.23;;;22.67;;
4355;SDS011;2191;51.482;7.408;2022-08-01T04:31:43;24.03;;;20.13;;
4355;SDS011;2191;51.482;7.408;2022-08-01T04:34:14;27.50;;;21.00;;
4355;SDS011;2191;51.482;7.408;2022-08-01T04:36:48;31.23;;;23.03;;
4355;SDS011;2191;51.482;7.408;2022-08-01T04:39:18;28.70;;;22.03;;
4355;SDS011;2191;51.482;7.408;2022-08-01T04:41:47;32.23;;;22.90;;
4355;SDS011;2191;51.482;7.408;2022-08-01T04:44:17;26.90;;;21.00;;
4355;SDS011;2191;51.482;7.408;2022-08-01T04:46:47;28.53;;;22.23;;
4355;SDS011;2191;51.482;7.408;2022-08-01T04:49:16;28.00;;;23.03;;
4355;SDS011;2191;51.482;7.408;2022-08-01T04:51:55;23.47;;;20.90;;
4355;SDS011;2191;51.482;7.408;2022-08-01T04:54:26;20.27;;;17.80;;
4355;SDS011;2191;51.482;7.408;2022-08-01T04:56:55;27.90;;;19.27;;
4355;SDS011;2191;51.482;7.408;2022-08-01T04:59:26;19.30;;;16.17;;
4355;SDS011;2191;51.482;7.408;2022-08-01T05:02:06;21.10;;;15.57;;
4355;SDS011;2191;51.482;7.408;2022-08-01T05:04:37;21.40;;;16.77;;
4355;SDS011;2191;51.482;7.408;2022-08-01T05:07:11;18.47;;;15.87;;
4355;SDS011;2191;51.482;7.408;2022-08-01T05:09:43;20.53;;;16.27;;
4355;SDS011;2191;51.482;7.408;2022-08-01T05:12:12;19.30;;;14.70;;
4355;SDS011;2191;51.482;7.408;2022-08-01T05:14:49;19.10;;;14.53;;
4355;SDS011;2191;51.482;7.408;2022-08-01T05:17:21;17.10;;;13.20;;
4355;SDS011;2191;51.482;7.408;2022-08-01T05:19:51;20.13;;;13.40;;
4355;SDS011;2191;51.482;7.408;2022-08-01T05:22:26;17.00;;;14.00;;
4355;SDS011;2191;51.482;7.408;2022-08-01T05:24:54;17.73;;;13.00;;
4355;SDS011;2191;51.482;7.408;2022-08-01T05:27:22;22.03;;;13.40;;
4355;SDS011;2191;51.482;7.408;2022-08-01T05:29:53;14.33;;;12.80;;
4355;SDS011;2191;51.482;7.408;2022-08-01T05:32:23;16.90;;;12.00;;
4355;SDS011;2191;51.482;7.408;2022-08-01T05:34:51;16.43;;;12.13;;
4355;SDS011;2191;51.482;7.408;2022-08-01T05:37:22;14.50;;;12.20;;
4355;SDS011;2191;51.482;7.408;2022-08-01T05:39:51;20.60;;;13.87;;
4355;SDS011;2191;51.482;7.408;2022-08-01T05:42:19;23.20;;;13.90;;
4355;SDS011;2191;51.482;7.408;2022-08-01T05:44:52;17.83;;;13.70;;
4355;SDS011;2191;51.482;7.408;2022-08-01T05:47:20;19.13;;;14.07;;
4355;SDS011;2191;51.482;7.408;2022-08-01T05:49:48;20.13;;;14.73;;
4355;SDS011;2191;51.482;7.408;2022-08-01T05:52:16;21.43;;;15.00;;
4355;SDS011;2191;51.482;7.408;2022-08-01T05:55:02;19.80;;;14.20;;
4355;SDS011;2191;51.482;7.408;2022-08-01T05:57:32;20.30;;;12.00;;
4355;SDS011;2191;51.482;7.408;2022-08-01T06:00:06;18.00;;;12.80;;
4355;SDS011;2191;51.482;7.408;2022-08-01T06:02:42;20.73;;;13.23;;
4355;SDS011;2191;51.482;7.408;2022-08-01T06:05:16;15.13;;;11.90;;
4355;SDS011;2191;51.482;7.408;2022-08-01T06:07:44;16.63;;;13.60;;
4355;SDS011;2191;51.482;7.408;2022-08-01T06:10:26;18.23;;;13.90;;
4355;SDS011;2191;51.482;7.408;2022-08-01T06:12:58;17.70;;;12.17;;
4355;SDS011;2191;51.482;7.408;2022-08-01T06:15:29;13.20;;;11.80;;
4355;SDS011;2191;51.482;7.408;2022-08-01T06:17:57;14.77;;;12.47;;
4355;SDS011;2191;51.482;7.408;2022-08-01T06:20:27;18.80;;;13.33;;
4355;SDS011;2191;51.482;7.408;2022-08-01T06:22:58;14.47;;;11.10;;
4355;SDS011;2191;51.482;7.408;2022-08-01T06:25:29;16.00;;;12.03;;
4355;SDS011;2191;51.482;7.408;2022-08-01T06:27:59;13.37;;;10.97;;
4355;SDS011;2191;51.482;7.408;2022-08-01T06:30:28;13.33;;;11.40;;
4355;SDS011;2191;51.482;7.408;2022-08-01T06:32:56;18.43;;;12.20;;
4355;SDS011;2191;51.482;7.408;2022-08-01T06:35:24;17.20;;;13.97;;
4355;SDS011;2191;51.482;7.408;2022-08-01T06:37:55;14.10;;;11.93;;
4355;SDS011;2191;51.482;7.408;2022-08-01T06:40:23;12.73;;;11.33;;
4355;SDS011;2191;51.482;7.408;2022-08-01T06:43:03;11.23;;;10.00;;
4355;SDS011;2191;51.482;7.408;2022-08-01T06:45:33;14.13;;;10.80;;
4355;SDS011;2191;51.482;7.408;2022-08-01T06:48:03;11.90;;;9.83;;
4355;SDS011;2191;51.482;7.408;2022-08-01T06:50:32;14.80;;;10.87;;
4355;SDS011;2191;51.482;7.408;2022-08-01T06:53:05;12.33;;;10.70;;
4355;SDS011;2191;51.482;7.408;2022-08-01T06:55:33;15.13;;;12.43;;
4355;SDS011;2191;51.482;7.408;2022-08-01T06:58:03;17.17;;;12.90;;
4355;SDS011;2191;51.482;7.408;2022-08-01T07:00:31;15.50;;;12.30;;
4355;SDS011;2191;51.482;7.408;2022-08-01T07:02:59;13.53;;;11.40;;
4355;SDS011;2191;51.482;7.408;2022-08-01T07:05:27;12.80;;;11.13;;
4355;SDS011;2191;51.482;7.408;2022-08-01T07:07:57;15.87;;;12.03;;
4355;SDS011;2191;51.482;7.408;2022-08-01T07:10:25;14.20;;;12.70;;
4355;SDS011;2191;51.482;7.408;2022-08-01T07:12:56;13.87;;;11.90;;
4355;SDS011;2191;51.482;7.408;2022-08-01T07:15:26;16.00;;;11.50;;
4355;SDS011;2191;51.482;7.408;2022-08-01T07:17:56;17.43;;;13.10;;
4355;SDS011;2191;51.482;7.408;2022-08-01T07:20:27;11.27;;;10.00;;
4355;SDS011;2191;51.482;7.408;2022-08-01T07:23:07;20.20;;;14.07;;
4355;SDS011;2191;51.482;7.408;2022-08-01T07:25:38;16.30;;;12.73;;
4355;SDS011;2191;51.482;7.408;2022-08-01T07:28:15;15.77;;;13.50;;
4355;SDS011;2191;51.482;7.408;2022-08-01T07:30:45;14.37;;;11.40;;
4355;SDS011;2191;51.482;7.408;2022-08-01T07:33:13;12.77;;;10.47;;
4355;SDS011;2191;51.482;7.408;2022-08-01T07:35:41;13.07;;;11.77;;
4355;SDS011;2191;51.482;7.408;2022-08-01T07:38:09;14.17;;;11.10;;
4355;SDS011;2191;51.482;7.408;2022-08-01T07:40:38;12.20;;;10.93;;
4355;SDS011;2191;51.482;7.408;2022-08-01T07:43:06;13.67;;;9.70;;
4355;SDS011;2191;51.482;7.408;2022-08-01T07:45:37;10.33;;;8.37;;
4355;SDS011;2191;51.482;7.408;2022-08-01T07:48:20;12.70;;;9.60;;
4355;SDS011;2191;51.482;7.408;2022-08-01T07:50:52;10.50;;;9.40;;
4355;SDS011;2191;51.482;7.408;2022-08-01T07:53:20;10.37;;;8.43;;
4355;SDS011;2191;51.482;7.408;2022-08-01T07:55:48;12.80;;;9.97;;
4355;SDS011;2191;51.482;7.408;2022-08-01T07:58:21;12.47;;;11.17;;
4355;SDS011;2191;51.482;7.408;2022-08-01T08:00:52;15.37;;;11.47;;
4355;SDS011;2191;51.482;7.408;2022-08-01T08:03:21;11.23;;;10.13;;
4355;SDS011;2191;51.482;7.408;2022-08-01T08:05:52;11.13;;;9.00;;
4355;SDS011;2191;51.482;7.408;2022-08-01T08:08:25;9.73;;;8.73;;
4355;SDS011;2191;51.482;7.408;2022-08-01T08:11:08;10.27;;;9.17;;
4355;SDS011;2191;51.482;7.408;2022-08-01T08:13:38;9.17;;;8.27;;
4355;SDS011;2191;51.482;7.408;2022-08-01T08:16:08;6.33;;;5.73;;
4355;SDS011;2191;51.482;7.408;2022-08-01T08:18:45;6.73;;;6.13;;
4355;SDS011;2191;51.482;7.408;2022-08-01T08:21:13;8.17;;;5.70;;
4355;SDS011;2191;51.482;7.408;2022-08-01T08:23:43;6.83;;;5.40;;
4355;SDS011;2191;51.482;7.408;2022-08-01T08:26:31;6.53;;;4.43;;
4355;SDS011;2191;51.482;7.408;2022-08-01T08:28:59;5.63;;;5.10;;
4355;SDS011;2191;51.482;7.408;2022-08-01T08:31:27;7.07;;;5.67;;
4355;SDS011;2191;51.482;7.408;2022-08-01T08:34:19;5.10;;;4.60;;
4355;SDS011;2191;51.482;7.408;2022-08-01T08:36:47;4.97;;;4.50;;
4355;SDS011;2191;51.482;7.408;2022-08-01T08:39:16;4.60;;;4.20;;
4355;SDS011;2191;51.482;7.408;2022-08-01T08:41:46;6.03;;;5.00;;
4355;SDS011;2191;51.482;7.408;2022-08-01T08:44:15;5.30;;;4.80;;
4355;SDS011;2191;51.482;7.408;2022-08-01T08:46:46;6.03;;;4.90;;
4355;SDS011;2191;51.482;7.408;2022-08-01T08:49:16;5.70;;;5.20;;
4355;SDS011;2191;51.482;7.408;2022-08-01T08:52:03;6.70;;;4.70;;
4355;SDS011;2191;51.482;7.408;2022-08-01T08:54:34;4.77;;;4.47;;
4355;SDS011;2191;51.482;7.408;2022-08-01T08:57:06;5.00;;;4.60;;
4355;SDS011;2191;51.482;7.408;2022-08-01T08:59:37;5.30;;;3.90;;
4355;SDS011;2191;51.482;7.408;2022-08-01T09:02:07;4.33;;;3.93;;
4355;SDS011;2191;51.482;7.408;2022-08-01T09:04:37;5.73;;;4.03;;
4355;SDS011;2191;51.482;7.408;2022-08-01T09:07:07;9.70;;;3.00;;
4355;SDS011;2191;51.482;7.408;2022-08-01T09:09:37;3.43;;;2.80;;
4355;SDS011;2191;51.482;7.408;2022-08-01T09:12:07;3.10;;;2.57;;
4355;SDS011;2191;51.482;7.408;2022-08-01T09:14:43;3.93;;;2.60;;
4355;SDS011;2191;51.482;7.408;2022-08-01T09:17:12;2.40;;;2.20;;
4355;SDS011;2191;51.482;7.408;2022-08-01T09:19:41;4.67;;;2.53;;
4355;SDS011;2191;51.482;7.408;2022-08-01T09:22:11;3.03;;;2.83;;
4355;SDS011;2191;51.482;7.408;2022-08-01T09:24:56;8.43;;;3.90;;
4355;SDS011;2191;51.482;7.408;2022-08-01T09:27:25;4.50;;;3.67;;
4355;SDS011;2191;51.482;7.408;2022-08-01T09:29:54;5.47;;;3.30;;
4355;SDS011;2191;51.482;7.408;2022-08-01T09:32:36;7.23;;;4.00;;
4355;SDS011;2191;51.482;7.408;2022-08-01T09:35:23;5.63;;;3.90;;
4355;SDS011;2191;51.482;7.408;2022-08-01T09:38:16;8.17;;;4.17;;
4355;SDS011;2191;51.482;7.408;2022-08-01T09:40:47;5.00;;;3.57;;
4355;SDS011;2191;51.482;7.408;2022-08-01T09:43:23;6.60;;;3.83;;
4355;SDS011;2191;51.482;7.408;2022-08-01T09:45:52;4.47;;;3.63;;
4355;SDS011;2191;51.482;7.408;2022-08-01T09:48:23;3.50;;;3.20;;
4355;SDS011;2191;51.482;7.408;2022-08-01T09:50:55;7.00;;;2.87;;
4355;SDS011;2191;51.482;7.408;2022-08-01T09:53:43;2.30;;;2.10;;
4355;SDS011;2191;51.482;7.408;2022-08-01T09:56:18;3.73;;;1.93;;
4355;SDS011;2191;51.482;7.408;2022-08-01T09:58:51;1.90;;;1.80;;
4355;SDS011;2191;51.482;7.408;2022-08-01T10:01:26;2.30;;;2.20;;
4355;SDS011;2191;51.482;7.408;2022-08-01T10:04:10;1.80;;;1.70;;
4355;SDS011;2191;51.482;7.408;2022-08-01T10:06:41;2.10;;;2.00;;
4355;SDS011;2191;51.482;7.408;2022-08-01T10:09:14;2.70;;;1.60;;
4355;SDS011;2191;51.482;7.408;2022-08-01T10:11:48;5.13;;;1.70;;
4355;SDS011;2191;51.482;7.408;2022-08-01T10:14:16;1.97;;;1.27;;
4355;SDS011;2191;51.482;7.408;2022-08-01T10:16:51;1.70;;;1.60;;
4355;SDS011;2191;51.482;7.408;2022-08-01T10:19:30;1.40;;;1.27;;
4355;SDS011;2191;51.482;7.408;2022-08-01T10:21:59;1.80;;;1.63;;
4355;SDS011;2191;51.482;7.408;2022-08-01T10:24:30;1.47;;;1.37;;
4355;SDS011;2191;51.482;7.408;2022-08-01T10:27:02;1.77;;;1.67;;
4355;SDS011;2191;51.482;7.408;2022-08-01T10:29:35;1.60;;;1.50;;
4355;SDS011;2191;51.482;7.408;2022-08-01T10:32:27;1.60;;;1.50;;
4355;SDS011;2191;51.482;7.408;2022-08-01T10:34:55;1.40;;;1.30;;
4355;SDS011;2191;51.482;7.408;2022-08-01T10:37:23;2.87;;;1.37;;
4355;SDS011;2191;51.482;7.408;2022-08-01T10:39:54;14.43;;;1.77;;
4355;SDS011;2191;51.482;7.408;2022-08-01T10:42:42;1.60;;;1.20;;
4355;SDS011;2191;51.482;7.408;2022-08-01T10:45:12;2.60;;;1.27;;
4355;SDS011;2191;51.482;7.408;2022-08-01T10:47:45;2.30;;;1.27;;
4355;SDS011;2191;51.482;7.408;2022-08-01T10:50:21;1.40;;;1.30;;
4355;SDS011;2191;51.482;7.408;2022-08-01T10:53:05;1.10;;;1.00;;
4355;SDS011;2191;51.482;7.408;2022-08-01T10:55:49;1.10;;;1.00;;
4355;SDS011;2191;51.482;7.408;2022-08-01T10:58:23;2.80;;;1.30;;
4355;SDS011;2191;51.482;7.408;2022-08-01T11:03:41;1.67;;;1.23;;
4355;SDS011;2191;51.482;7.408;2022-08-01T11:06:24;1.27;;;1.17;;
4355;SDS011;2191;51.482;7.408;2022-08-01T11:08:55;1.43;;;1.10;;
4355;SDS011;2191;51.482;7.408;2022-08-01T11:11:29;1.53;;;1.20;;
4355;SDS011;2191;51.482;7.408;2022-08-01T11:14:03;2.13;;;1.30;;
4355;SDS011;2191;51.482;7.408;2022-08-01T11:16:40;1.50;;;1.27;;
4355;SDS011;2191;51.482;7.408;2022-08-01T11:19:08;1.27;;;1.10;;
4355;SDS011;2191;51.482;7.408;2022-08-01T11:27:29;1.63;;;0.90;;
4355;SDS011;2191;51.482;7.408;2022-08-01T11:32:52;2.30;;;1.33;;
4355;SDS011;2191;51.482;7.408;2022-08-01T11:35:37;0.90;;;0.90;;
4355;SDS011;2191;51.482;7.408;2022-08-01T11:38:28;1.23;;;1.13;;
4355;SDS011;2191;51.482;7.408;2022-08-01T11:41:08;1.50;;;1.40;;
4355;SDS011;2191;51.482;7.408;2022-08-01T11:46:49;0.70;;;0.70;;
4355;SDS011;2191;51.482;7.408;2022-08-01T11:49:26;1.47;;;0.93;;
4355;SDS011;2191;51.482;7.408;2022-08-01T11:52:18;0.90;;;0.90;;
4355;SDS011;2191;51.482;7.408;2022-08-01T11:54:56;0.90;;;0.90;;
4355;SDS011;2191;51.482;7.408;2022-08-01T11:57:31;0.90;;;0.90;;
4355;SDS011;2191;51.482;7.408;2022-08-01T12:00:04;1.33;;;0.80;;
4355;SDS011;2191;51.482;7.408;2022-08-01T12:02:43;0.93;;;0.93;;
4355;SDS011;2191;51.482;7.408;2022-08-01T12:05:12;1.53;;;0.97;;
4355;SDS011;2191;51.482;7.408;2022-08-01T12:07:43;2.80;;;1.63;;
4355;SDS011;2191;51.482;7.408;2022-08-01T12:10:16;1.37;;;1.07;;
4355;SDS011;2191;51.482;7.408;2022-08-01T12:12:48;1.33;;;0.80;;
4355;SDS011;2191;51.482;7.408;2022-08-01T12:15:22;2.50;;;1.20;;
4355;SDS011;2191;51.482;7.408;2022-08-01T12:17:59;0.80;;;0.80;;
4355;SDS011;2191;51.482;7.408;2022-08-01T12:20:32;2.90;;;1.13;;
4355;SDS011;2191;51.482;7.408;2022-08-01T12:23:02;1.17;;;1.07;;
4355;SDS011;2191;51.482;7.408;2022-08-01T12:25:32;0.73;;;0.70;;
4355;SDS011;2191;51.482;7.408;2022-08-01T12:28:00;3.23;;;0.90;;
4355;SDS011;2191;51.482;7.408;2022-08-01T12:30:31;1.83;;;0.70;;
4355;SDS011;2191;51.482;7.408;2022-08-01T12:33:02;1.93;;;1.17;;
4355;SDS011;2191;51.482;7.408;2022-08-01T12:35:31;1.13;;;0.80;;
4355;SDS011;2191;51.482;7.408;2022-08-01T12:38:05;0.80;;;0.80;;
4355;SDS011;2191;51.482;7.408;2022-08-01T12:40:40;2.90;;;1.00;;
4355;SDS011;2191;51.482;7.408;2022-08-01T12:43:15;1.17;;;1.07;;
4355;SDS011;2191;51.482;7.408;2022-08-01T12:45:55;1.00;;;0.90;;
4355;SDS011;2191;51.482;7.408;2022-08-01T12:48:29;1.00;;;1.00;;
4355;SDS011;2191;51.482;7.408;2022-08-01T12:51:02;1.90;;;0.83;;
4355;SDS011;2191;51.482;7.408;2022-08-01T12:53:35;0.90;;;0.90;;
4355;SDS011;2191;51.482;7.408;2022-08-01T12:56:06;0.93;;;0.90;;
4355;SDS011;2191;51.482;7.408;2022-08-01T12:58:37;2.03;;;1.00;;
4355;SDS011;2191;51.482;7.408;2022-08-01T13:01:07;1.10;;;1.00;;
4355;SDS011;2191;51.482;7.408;2022-08-01T13:03:38;0.77;;;0.77;;
4355;SDS011;2191;51.482;7.408;2022-08-01T13:06:10;1.50;;;1.10;;
4355;SDS011;2191;51.482;7.408;2022-08-01T13:08:41;1.00;;;1.00;;
4355;SDS011;2191;51.482;7.408;2022-08-01T13:11:12;2.27;;;0.80;;
4355;SDS011;2191;51.482;7.408;2022-08-01T13:13:46;1.80;;;0.80;;
4355;SDS011;2191;51.482;7.408;2022-08-01T13:16:20;0.80;;;0.80;;
4355;SDS011;2191;51.482;7.408;2022-08-01T13:19:03;1.37;;;0.70;;
4355;SDS011;2191;51.482;7.408;2022-08-01T13:21:34;1.10;;;1.00;;
4355;SDS011;2191;51.482;7.408;2022-08-01T13:24:22;1.00;;;1.00;;
4355;SDS011;2191;51.482;7.408;2022-08-01T13:26:52;0.70;;;0.70;;
4355;SDS011;2191;51.482;7.408;2022-08-01T13:29:31;1.00;;;0.90;;
4355;SDS011;2191;51.482;7.408;2022-08-01T13:32:01;0.80;;;0.80;;
4355;SDS011;2191;51.482;7.408;2022-08-01T13:35:01;0.93;;;0.80;;
4355;SDS011;2191;51.482;7.408;2022-08-01T13:37:33;0.87;;;0.80;;
4355;SDS011;2191;51.482;7.408;2022-08-01T13:40:04;5.53;;;0.90;;
4355;SDS011;2191;51.482;7.408;2022-08-01T13:42:36;2.13;;;1.17;;
4355;SDS011;2191;51.482;7.408;2022-08-01T13:45:04;1.03;;;0.93;;
4355;SDS011;2191;51.482;7.408;2022-08-01T13:47:41;2.00;;;0.90;;
4355;SDS011;2191;51.482;7.408;2022-08-01T13:50:32;0.77;;;0.77;;
4355;SDS011;2191;51.482;7.408;2022-08-01T13:53:05;1.20;;;1.07;;
4355;SDS011;2191;51.482;7.408;2022-08-01T13:55:33;0.73;;;0.73;;
4355;SDS011;2191;51.482;7.408;2022-08-01T13:58:03;1.00;;;1.00;;
4355;SDS011;2191;51.482;7.408;2022-08-01T14:00:31;1.00;;;1.00;;
4355;SDS011;2191;51.482;7.408;2022-08-01T14:03:00;0.90;;;0.87;;
4355;SDS011;2191;51.482;7.408;2022-08-01T14:05:31;3.40;;;1.20;;
4355;SDS011;2191;51.482;7.408;2022-08-01T14:07:59;1.27;;;1.07;;
4355;SDS011;2191;51.482;7.408;2022-08-01T14:10:27;2.07;;;1.43;;
4355;SDS011;2191;51.482;7.408;2022-08-01T14:12:55;2.40;;;1.10;;
4355;SDS011;2191;51.482;7.408;2022-08-01T14:15:27;2.97;;;2.07;;
4355;SDS011;2191;51.482;7.408;2022-08-01T14:18:06;3.07;;;1.43;;
4355;SDS011;2191;51.482;7.408;2022-08-01T14:20:38;1.10;;;1.00;;
4355;SDS011;2191;51.482;7.408;2022-08-01T14:23:09;1.10;;;0.90;;
4355;SDS011;2191;51.482;7.408;2022-08-01T14:25:37;2.10;;;1.73;;
4355;SDS011;2191;51.482;7.408;2022-08-01T14:28:30;1.10;;;1.10;;
4355;SDS011;2191;51.482;7.408;2022-08-01T14:30:59;1.40;;;1.20;;
4355;SDS011;2191;51.482;7.408;2022-08-01T14:33:28;1.97;;;1.20;;
4355;SDS011;2191;51.482;7.408;2022-08-01T14:35:59;2.13;;;1.10;;
4355;SDS011;2191;51.482;7.408;2022-08-01T14:38:47;2.40;;;1.43;;
4355;SDS011;2191;51.482;7.408;2022-08-01T14:41:15;2.27;;;1.13;;
4355;SDS011;2191;51.482;7.408;2022-08-01T14:43:43;4.73;;;1.20;;
4355;SDS011;2191;51.482;7.408;2022-08-01T14:46:11;2.60;;;1.40;;
4355;SDS011;2191;51.482;7.408;2022-08-01T14:48:41;1.43;;;1.33;;
4355;SDS011;2191;51.482;7.408;2022-08-01T14:51:09;1.73;;;1.20;;
4355;SDS011;2191;51.482;7.408;2022-08-01T14:53:39;1.40;;;1.30;;
4355;SDS011;2191;51.482;7.408;2022-08-01T14:56:16;2.10;;;1.17;;
4355;SDS011;2191;51.482;7.408;2022-08-01T14:58:46;1.50;;;1.20;;
4355;SDS011;2191;51.482;7.408;2022-08-01T15:01:14;1.90;;;1.13;;
4355;SDS011;2191;51.482;7.408;2022-08-01T15:03:46;1.37;;;1.27;;
4355;SDS011;2191;51.482;7.408;2022-08-01T15:06:16;1.40;;;1.30;;
4355;SDS011;2191;51.482;7.408;2022-08-01T15:08:53;1.70;;;1.40;;
4355;SDS011;2191;51.482;7.408;2022-08-01T15:11:21;3.90;;;1.20;;
4355;SDS011;2191;51.482;7.408;2022-08-01T15:14:02;3.60;;;1.10;;
4355;SDS011;2191;51.482;7.408;2022-08-01T15:16:47;3.47;;;1.67;;
4355;SDS011;2191;51.482;7.408;2022-08-01T15:19:17;4.90;;;1.30;;
4355;SDS011;2191;51.482;7.408;2022-08-01T15:21:53;4.00;;;1.13;;
4355;SDS011;2191;51.482;7.408;2022-08-01T15:24:21;1.80;;;1.07;;
4355;SDS011;2191;51.482;7.408;2022-08-01T15:26:49;1.67;;;1.40;;
4355;SDS011;2191;51.482;7.408;2022-08-01T15:29:20;1.43;;;1.20;;
4355;SDS011;2191;51.482;7.408;2022-08-01T15:31:47;2.00;;;1.20;;
4355;SDS011;2191;51.482;7.408;2022-08-01T15:34:19;2.13;;;1.57;;
4355;SDS011;2191;51.482;7.408;2022-08-01T15:36:48;2.73;;;1.50;;
4355;SDS011;2191;51.482;7.408;2022-08-01T15:39:18;5.53;;;1.60;;
4355;SDS011;2191;51.482;7.408;2022-08-01T15:41:48;3.50;;;1.40;;
4355;SDS011;2191;51.482;7.408;2022-08-01T15:44:16;1.90;;;1.53;;
4355;SDS011;2191;51.482;7.408;2022-08-01T15:46:46;1.40;;;1.30;;
4355;SDS011;2191;51.482;7.408;2022-08-01T15:49:18;2.43;;;1.70;;